Marchicora — V2OQ7 — position and weather

sailwx.info

Track history (hours):
 
Tides and Currents Weather Stations Pressure Air Temp Water Temp Dewpoint Dewpoint Depression Visibility Wind Speed Wind Dir Waves Ship Positions

Marchicora

Last reported at 2017-Feb-28 07:16 UTC. Time now 2017-Feb-28 07:55 UTC.
Position N 49°40' W 001°06'.

Length 153 m; draft 9.9 m.

Type: Cargo ship. MMSI: 304653000.

Date/timePositionNaut miles runAvg speedWind from/ knotsBaromVisibWave heightAir tempDewpointWater temp
2017-Feb-28 07:16N 49°40' W 001°06'710.6
2017-Feb-28 06:33N 49°33' W 001°01'1 1.1
2017-Feb-28 05:23N 49°32' W 000°60'0 0.1
2017-Feb-28 04:17N 49°32' W 001°00'0 0.0
2017-Feb-28 03:29N 49°32' W 001°00'0 0.0
2017-Feb-28 02:23N 49°32' W 001°00'0 0.0
2017-Feb-28 01:29N 49°32' W 001°00'0 0.1
2017-Feb-27 23:08N 49°32' W 000°60'0 0.1
2017-Feb-27 20:26N 49°32' W 000°60'0 0.0
2017-Feb-27 19:32N 49°32' W 000°60'0 0.1
2017-Feb-27 17:29N 49°32' W 000°60'0 0.1
2017-Feb-27 16:11N 49°32' W 000°60'0 0.1
2017-Feb-27 15:32N 49°32' W 001°00'0 0.0
2017-Feb-27 14:32N 49°32' W 001°00'0 0.0
2017-Feb-27 13:26N 49°32' W 001°00'0 0.1
2017-Feb-27 12:29N 49°32' W 000°60'0 0.1
2017-Feb-27 11:29N 49°32' W 000°60'0 0.1
2017-Feb-27 08:32N 49°32' W 000°60'0 0.0
2017-Feb-27 07:32N 49°32' W 000°60'0 0.0
2017-Feb-27 06:32N 49°32' W 000°60'0 0.2
2017-Feb-27 05:26N 49°32' W 000°60'0 0.1
2017-Feb-27 04:23N 49°32' W 000°60'0 0.0
2017-Feb-27 03:32N 49°32' W 001°00'0 0.0
2017-Feb-27 02:32N 49°32' W 001°00'0 0.0
2017-Feb-27 01:32N 49°32' W 001°00'0 0.0
2017-Feb-27 00:31N 49°32' W 001°00'0 0.1
2017-Feb-26 23:28N 49°32' W 000°60'0 0.1
2017-Feb-26 22:28N 49°32' W 000°60'0 0.1
2017-Feb-26 20:16N 49°32' W 000°60'0 0.0
2017-Feb-26 19:31N 49°32' W 000°60'0 0.0
2017-Feb-26 18:31N 49°32' W 000°60'0 0.1
2017-Feb-26 16:10N 49°32' W 001°00'0 0.0
2017-Feb-26 15:10N 49°32' W 001°00'0 0.0
2017-Feb-26 14:28N 49°32' W 001°00'0 0.0
2017-Feb-26 13:31N 49°32' W 001°00'0 0.0
2017-Feb-26 12:31N 49°32' W 001°00'0 0.1
2017-Feb-26 11:13N 49°32' W 000°60'0 0.1
2017-Feb-26 10:33N 49°32' W 000°60'0 0.1
2017-Feb-26 09:32N 49°32' W 000°60'0 0.1
2017-Feb-26 08:33N 49°32' W 000°60'0 0.0
2017-Feb-26 07:33N 49°32' W 000°60'0 0.0
2017-Feb-26 06:33N 49°32' W 000°60'0 0.0
2017-Feb-26 05:33N 49°32' W 000°60'0 0.2
2017-Feb-26 04:33N 49°32' W 000°60'0 0.1
2017-Feb-26 03:33N 49°32' W 000°60'0 0.0
2017-Feb-26 02:33N 49°32' W 001°00'0 0.0
2017-Feb-26 01:33N 49°32' W 001°00'0 0.0
2017-Feb-26 00:33N 49°32' W 001°00'0 0.0
2017-Feb-25 23:33N 49°32' W 000°60'0 0.1
2017-Feb-25 22:33N 49°32' W 000°60'0 0.1
2017-Feb-25 21:32N 49°32' W 000°60'0 0.1
2017-Feb-25 20:31N 49°32' W 000°60'7 7.2
2017-Feb-25 19:33N 49°38' W 000°55'1211.8
2017-Feb-25 18:33N 49°48' W 000°44'1211.8
2017-Feb-25 17:33N 49°58' W 000°34'1212.5
2017-Feb-25 16:33N 50°08' W 000°23'1312.8
2017-Feb-25 15:33N 50°19' W 000°13'1212.5
2017-Feb-25 14:33N 50°28' E 000°00'1312.7
2017-Feb-25 13:33N 50°33' E 000°19'1212.1
2017-Feb-25 12:33N 50°38' E 000°36'1110.9
2017-Feb-25 11:31N 50°45' E 000°50'1010.1
2017-Feb-25 10:33N 50°51' E 001°02'10 9.9
2017-Feb-25 09:33N 50°57' E 001°14'1010.3
2017-Feb-25 08:33N 51°04' E 001°27'1312.7
2017-Feb-25 07:33N 51°12' E 001°43'1313.5
2017-Feb-25 06:33N 51°24' E 001°53'1313.0
2017-Feb-25 05:33N 51°33' E 002°07'1212.3
2017-Feb-25 04:33N 51°42' E 002°20'15612.0
2017-Feb-24 15:32N 54°01' E 004°20'31010.7
2017-Feb-23 10:32N 57°51' E 010°30'1010.1
2017-Feb-23 09:33N 57°45' E 010°46'5 4.9
2017-Feb-23 08:32N 57°42' E 010°38'0 0.0
2017-Feb-23 07:32N 57°42' E 010°38'0 0.1
2017-Feb-23 06:33N 57°42' E 010°38'0 0.0
2017-Feb-23 05:33N 57°42' E 010°38'0 0.0
2017-Feb-23 04:33N 57°42' E 010°38'0 0.1
2017-Feb-23 03:33N 57°42' E 010°38'0 0.1
2017-Feb-23 02:32N 57°42' E 010°38'0 0.0
2017-Feb-23 01:33N 57°42' E 010°38'0 0.0
2017-Feb-23 00:33N 57°42' E 010°38'0 0.0
2017-Feb-22 23:33N 57°42' E 010°38'0 0.0
2017-Feb-22 22:33N 57°42' E 010°38'0 0.0
2017-Feb-22 21:31N 57°42' E 010°38'0 0.0
2017-Feb-22 20:33N 57°42' E 010°38'0 0.0
2017-Feb-22 19:33N 57°42' E 010°38'0 0.0
2017-Feb-22 18:33N 57°43' E 010°38'0 0.0
2017-Feb-22 17:33N 57°43' E 010°38'0 0.0
2017-Feb-22 16:33N 57°43' E 010°38'0 0.0
2017-Feb-22 15:33N 57°43' E 010°38'0 0.0
2017-Feb-22 14:33N 57°43' E 010°38'0 0.0
2017-Feb-22 13:33N 57°43' E 010°38'0 0.0
2017-Feb-22 12:33N 57°43' E 010°38'1 0.9
2017-Feb-22 11:33N 57°42' E 010°39'1 1.5
2017-Feb-22 10:33N 57°40' E 010°40'0 0.0
2017-Feb-22 09:33N 57°40' E 010°40'0 0.0
2017-Feb-22 08:33N 57°40' E 010°40'0 0.0
2017-Feb-22 07:33N 57°40' E 010°40'0 0.0
2017-Feb-22 06:33N 57°40' E 010°40'0 0.1
2017-Feb-22 05:33N 57°40' E 010°40'5 5.1
2017-Feb-22 04:33N 57°38' E 010°49'9 9.2
2017-Feb-22 03:33N 57°34' E 011°04'1312.7
2017-Feb-22 02:33N 57°28' E 011°25'1312.9
2017-Feb-22 01:33N 57°16' E 011°34'1312.6
2017-Feb-22 00:33N 57°04' E 011°42'2512.0
2017-Feb-21 22:28N 56°40' E 011°48'8610.8
2017-Feb-21 14:31N 55°17' E 011°04'9 9.7
2017-Feb-21 13:33N 55°08' E 011°03'1111.1
2017-Feb-21 12:33N 54°57' E 010°59'10 9.9
2017-Feb-21 11:33N 54°48' E 010°53'10 9.8
2017-Feb-21 10:33N 54°39' E 011°01'1111.2
2017-Feb-21 09:33N 54°34' E 011°17'1111.0
2017-Feb-21 08:33N 54°29' E 011°35'1111.2
2017-Feb-21 07:33N 54°26' E 011°53'1211.1
2017-Feb-21 06:31N 54°29' E 012°12'1111.7
2017-Feb-21 05:33N 54°39' E 012°21'4011.9
2017-Feb-21 02:14N 54°55' E 013°23'812.1
2017-Feb-21 01:33N 54°58' E 013°37'1111.2
2017-Feb-21 00:33N 55°02' E 013°55'1110.8
2017-Feb-20 23:32N 55°09' E 014°10'1211.2
2017-Feb-20 22:31N 55°18' E 014°23'1111.6
2017-Feb-20 21:33N 55°26' E 014°36'1211.6
2017-Feb-20 20:33N 55°32' E 014°54'1111.5
2017-Feb-20 19:33N 55°38' E 015°11'1111.4
2017-Feb-20 18:33N 55°44' E 015°28'1111.2
2017-Feb-20 17:33N 55°49' E 015°46'1111.5
2017-Feb-20 16:33N 55°55' E 016°03'1111.3
2017-Feb-20 15:33N 56°01' E 016°20'1110.9
2017-Feb-20 14:33N 56°06' E 016°37'1010.1
2017-Feb-20 13:33N 56°14' E 016°49'1111.4
2017-Feb-20 12:33N 56°25' E 016°56'  
Track history (hours):
 
Tides and Currents Weather Stations Pressure Air Temp Water Temp Dewpoint Dewpoint Depression Visibility Wind Speed Wind Dir Waves Ship Positions

Marchicora

Last reported at 2017-Feb-28 07:16 UTC. Time now 2017-Feb-28 07:55 UTC.
Position N 49°40' W 001°06'.

Length 153 m; draft 9.9 m.

Type: Cargo ship. MMSI: 304653000.

Date/timePositionNaut miles runAvg speedWind from/ knotsBaromVisibWave heightAir tempDewpointWater temp
2017-Feb-28 07:16N 49°40' W 001°06'710.6
2017-Feb-28 06:33N 49°33' W 001°01'1 1.1
2017-Feb-28 05:23N 49°32' W 000°60'0 0.1
2017-Feb-28 04:17N 49°32' W 001°00'0 0.0
2017-Feb-28 03:29N 49°32' W 001°00'0 0.0
2017-Feb-28 02:23N 49°32' W 001°00'0 0.0
2017-Feb-28 01:29N 49°32' W 001°00'0 0.1
2017-Feb-27 23:08N 49°32' W 000°60'0 0.1
2017-Feb-27 20:26N 49°32' W 000°60'0 0.0
2017-Feb-27 19:32N 49°32' W 000°60'0 0.1
2017-Feb-27 17:29N 49°32' W 000°60'0 0.1
2017-Feb-27 16:11N 49°32' W 000°60'0 0.1
2017-Feb-27 15:32N 49°32' W 001°00'0 0.0
2017-Feb-27 14:32N 49°32' W 001°00'0 0.0
2017-Feb-27 13:26N 49°32' W 001°00'0 0.1
2017-Feb-27 12:29N 49°32' W 000°60'0 0.1
2017-Feb-27 11:29N 49°32' W 000°60'0 0.1
2017-Feb-27 08:32N 49°32' W 000°60'0 0.0
2017-Feb-27 07:32N 49°32' W 000°60'0 0.0
2017-Feb-27 06:32N 49°32' W 000°60'0 0.2
2017-Feb-27 05:26N 49°32' W 000°60'0 0.1
2017-Feb-27 04:23N 49°32' W 000°60'0 0.0
2017-Feb-27 03:32N 49°32' W 001°00'0 0.0
2017-Feb-27 02:32N 49°32' W 001°00'0 0.0
2017-Feb-27 01:32N 49°32' W 001°00'0 0.0
2017-Feb-27 00:31N 49°32' W 001°00'0 0.1
2017-Feb-26 23:28N 49°32' W 000°60'0 0.1
2017-Feb-26 22:28N 49°32' W 000°60'0 0.1
2017-Feb-26 20:16N 49°32' W 000°60'0 0.0
2017-Feb-26 19:31N 49°32' W 000°60'0 0.0
2017-Feb-26 18:31N 49°32' W 000°60'0 0.1
2017-Feb-26 16:10N 49°32' W 001°00'0 0.0
2017-Feb-26 15:10N 49°32' W 001°00'0 0.0
2017-Feb-26 14:28N 49°32' W 001°00'0 0.0
2017-Feb-26 13:31N 49°32' W 001°00'0 0.0
2017-Feb-26 12:31N 49°32' W 001°00'0 0.1
2017-Feb-26 11:13N 49°32' W 000°60'0 0.1
2017-Feb-26 10:33N 49°32' W 000°60'0 0.1
2017-Feb-26 09:32N 49°32' W 000°60'0 0.1
2017-Feb-26 08:33N 49°32' W 000°60'0 0.0
2017-Feb-26 07:33N 49°32' W 000°60'0 0.0
2017-Feb-26 06:33N 49°32' W 000°60'0 0.0
2017-Feb-26 05:33N 49°32' W 000°60'0 0.2
2017-Feb-26 04:33N 49°32' W 000°60'0 0.1
2017-Feb-26 03:33N 49°32' W 000°60'0 0.0
2017-Feb-26 02:33N 49°32' W 001°00'0 0.0
2017-Feb-26 01:33N 49°32' W 001°00'0 0.0
2017-Feb-26 00:33N 49°32' W 001°00'0 0.0
2017-Feb-25 23:33N 49°32' W 000°60'0 0.1
2017-Feb-25 22:33N 49°32' W 000°60'0 0.1
2017-Feb-25 21:32N 49°32' W 000°60'0 0.1
2017-Feb-25 20:31N 49°32' W 000°60'7 7.2
2017-Feb-25 19:33N 49°38' W 000°55'1211.8
2017-Feb-25 18:33N 49°48' W 000°44'1211.8
2017-Feb-25 17:33N 49°58' W 000°34'1212.5
2017-Feb-25 16:33N 50°08' W 000°23'1312.8
2017-Feb-25 15:33N 50°19' W 000°13'1212.5
2017-Feb-25 14:33N 50°28' E 000°00'1312.7
2017-Feb-25 13:33N 50°33' E 000°19'1212.1
2017-Feb-25 12:33N 50°38' E 000°36'1110.9
2017-Feb-25 11:31N 50°45' E 000°50'1010.1
2017-Feb-25 10:33N 50°51' E 001°02'10 9.9
2017-Feb-25 09:33N 50°57' E 001°14'1010.3
2017-Feb-25 08:33N 51°04' E 001°27'1312.7
2017-Feb-25 07:33N 51°12' E 001°43'1313.5
2017-Feb-25 06:33N 51°24' E 001°53'1313.0
2017-Feb-25 05:33N 51°33' E 002°07'1212.3
2017-Feb-25 04:33N 51°42' E 002°20'15612.0
2017-Feb-24 15:32N 54°01' E 004°20'31010.7
2017-Feb-23 10:32N 57°51' E 010°30'1010.1
2017-Feb-23 09:33N 57°45' E 010°46'5 4.9
2017-Feb-23 08:32N 57°42' E 010°38'0 0.0
2017-Feb-23 07:32N 57°42' E 010°38'0 0.1
2017-Feb-23 06:33N 57°42' E 010°38'0 0.0
2017-Feb-23 05:33N 57°42' E 010°38'0 0.0
2017-Feb-23 04:33N 57°42' E 010°38'0 0.1
2017-Feb-23 03:33N 57°42' E 010°38'0 0.1
2017-Feb-23 02:32N 57°42' E 010°38'0 0.0
2017-Feb-23 01:33N 57°42' E 010°38'0 0.0
2017-Feb-23 00:33N 57°42' E 010°38'0 0.0
2017-Feb-22 23:33N 57°42' E 010°38'0 0.0
2017-Feb-22 22:33N 57°42' E 010°38'0 0.0
2017-Feb-22 21:31N 57°42' E 010°38'0 0.0
2017-Feb-22 20:33N 57°42' E 010°38'0 0.0
2017-Feb-22 19:33N 57°42' E 010°38'0 0.0
2017-Feb-22 18:33N 57°43' E 010°38'0 0.0
2017-Feb-22 17:33N 57°43' E 010°38'0 0.0
2017-Feb-22 16:33N 57°43' E 010°38'0 0.0
2017-Feb-22 15:33N 57°43' E 010°38'0 0.0
2017-Feb-22 14:33N 57°43' E 010°38'0 0.0
2017-Feb-22 13:33N 57°43' E 010°38'0 0.0
2017-Feb-22 12:33N 57°43' E 010°38'1 0.9
2017-Feb-22 11:33N 57°42' E 010°39'1 1.5
2017-Feb-22 10:33N 57°40' E 010°40'0 0.0
2017-Feb-22 09:33N 57°40' E 010°40'0 0.0
2017-Feb-22 08:33N 57°40' E 010°40'0 0.0
2017-Feb-22 07:33N 57°40' E 010°40'0 0.0
2017-Feb-22 06:33N 57°40' E 010°40'0 0.1
2017-Feb-22 05:33N 57°40' E 010°40'5 5.1
2017-Feb-22 04:33N 57°38' E 010°49'9 9.2
2017-Feb-22 03:33N 57°34' E 011°04'1312.7
2017-Feb-22 02:33N 57°28' E 011°25'1312.9
2017-Feb-22 01:33N 57°16' E 011°34'1312.6
2017-Feb-22 00:33N 57°04' E 011°42'2512.0
2017-Feb-21 22:28N 56°40' E 011°48'8610.8
2017-Feb-21 14:31N 55°17' E 011°04'9 9.7
2017-Feb-21 13:33N 55°08' E 011°03'1111.1
2017-Feb-21 12:33N 54°57' E 010°59'10 9.9
2017-Feb-21 11:33N 54°48' E 010°53'10 9.8
2017-Feb-21 10:33N 54°39' E 011°01'1111.2
2017-Feb-21 09:33N 54°34' E 011°17'1111.0
2017-Feb-21 08:33N 54°29' E 011°35'1111.2
2017-Feb-21 07:33N 54°26' E 011°53'1211.1
2017-Feb-21 06:31N 54°29' E 012°12'1111.7
2017-Feb-21 05:33N 54°39' E 012°21'4011.9
2017-Feb-21 02:14N 54°55' E 013°23'812.1
2017-Feb-21 01:33N 54°58' E 013°37'1111.2
2017-Feb-21 00:33N 55°02' E 013°55'1110.8
2017-Feb-20 23:32N 55°09' E 014°10'1211.2
2017-Feb-20 22:31N 55°18' E 014°23'1111.6
2017-Feb-20 21:33N 55°26' E 014°36'1211.6
2017-Feb-20 20:33N 55°32' E 014°54'1111.5
2017-Feb-20 19:33N 55°38' E 015°11'1111.4
2017-Feb-20 18:33N 55°44' E 015°28'1111.2
2017-Feb-20 17:33N 55°49' E 015°46'1111.5
2017-Feb-20 16:33N 55°55' E 016°03'1111.3
2017-Feb-20 15:33N 56°01' E 016°20'1110.9
2017-Feb-20 14:33N 56°06' E 016°37'1010.1
2017-Feb-20 13:33N 56°14' E 016°49'1111.4
2017-Feb-20 12:33N 56°25' E 016°56'  

Dump ship's entire track history